| time (UTC) | temp C | wind direction | speed KPH | gust KPH | rain 1hr cm | rain 24hr cm | rain mn cm | humidity % | barometer mb |
| 20260906223442 | 28 | 247 | 0.0 | 0.0 | 0.00 | 0.00 | 3.56 | 80 | 1007.6 |
| 20260906222438 | 28 | 247 | 0.0 | 0.0 | 0.00 | 0.00 | 3.56 | 80 | 1008.0 |
| 20260906221438 | 28 | 247 | 0.0 | 0.0 | 0.00 | 0.00 | 3.56 | 82 | 1008.0 |
| 20260906220441 | 28 | 247 | 0.0 | 0.0 | 0.00 | 0.00 | 3.56 | 82 | 1008.0 |
| 20260906215439 | 28 | 247 | 0.0 | 0.0 | 0.00 | 0.00 | 3.56 | 83 | 1008.3 |
| 20260906214438 | 28 | 247 | 0.0 | 0.0 | 0.00 | 0.00 | 3.56 | 84 | 1008.4 |
| 20260906213438 | 28 | 247 | 0.0 | 0.0 | 0.00 | 0.00 | 3.56 | 85 | 1008.4 |
| 20260906212438 | 27 | 247 | 0.0 | 0.0 | 0.00 | 0.00 | 3.56 | 85 | 1008.6 |
| 20260906211438 | 27 | 247 | 0.0 | 0.0 | 0.00 | 0.00 | 3.56 | 86 | 1008.7 |
| 20260906210438 | 27 | 247 | 0.0 | 0.0 | 0.00 | 0.00 | 3.56 | 86 | 1008.7 |
| 20260906205438 | 27 | 247 | 0.0 | 1.6 | 0.00 | 0.00 | 3.56 | 86 | 1008.9 |
| 20260906204438 | 27 | 247 | 0.0 | 0.0 | 0.00 | 0.00 | 3.56 | 88 | 1009.1 |
| 20260906203438 | 27 | 247 | 0.0 | 1.6 | 0.00 | 0.00 | 3.56 | 87 | 1009.1 |
| 20260906202438 | 26 | 248 | 0.0 | 1.6 | 0.00 | 0.00 | 3.56 | 88 | 1009.1 |
| 20260906201441 | 26 | 251 | 0.0 | 1.6 | 0.00 | 0.00 | 3.56 | 88 | 1008.7 |
| 20260906200441 | 26 | 251 | 0.0 | 3.2 | 0.00 | 0.00 | 3.56 | 87 | 1008.7 |
| 20260906195441 | 26 | 252 | 0.0 | 3.2 | 0.00 | 0.00 | 3.56 | 86 | 1009.3 |
| 20260906194441 | 26 | 254 | 0.0 | 0.0 | 0.00 | 0.00 | 3.53 | 85 | 1009.7 |
| 20260906193438 | 25 | 254 | 0.0 | 0.0 | 0.00 | 0.00 | 3.53 | 84 | 1009.7 |
| 20260906192438 | 25 | 254 | 0.0 | 0.0 | 0.00 | 0.00 | 3.51 | 83 | 1010.1 |
| 20260906191439 | 26 | 254 | 0.0 | 0.0 | 0.00 | 0.00 | 3.45 | 81 | 1010.4 |
| 20260906190441 | 26 | 254 | 0.0 | 6.4 | 0.00 | 0.00 | 3.23 | 79 | 1010.4 |
| 20260906185438 | 27 | 338 | 0.0 | 14.5 | 0.00 | 0.00 | 2.87 | 77 | 1011.1 |
| 20260906184438 | 28 | 211 | 0.0 | 6.4 | 0.00 | 0.00 | 2.03 | 74 | 1010.9 |
| 20260906183441 | 30 | 180 | 0.0 | 8.0 | 0.00 | 0.00 | 0.94 | 69 | 1010.9 |
| 20260906182438 | 32 | 144 | 1.6 | 16.1 | 0.00 | 0.00 | 0.03 | 62 | 1010.2 |
| 20260906181437 | 32 | 336 | 0.0 | 1.6 | 0.00 | 0.00 | 0.00 | 60 | 1009.8 |
| 20260906180438 | 33 | 336 | 0.0 | 3.2 | 0.00 | 0.00 | 0.00 | 60 | 1009.8 |
| 20260906175438 | 33 | 319 | 0.0 | 3.2 | 0.00 | 0.00 | 0.00 | 61 | 1009.8 |
| 20260906174438 | 32 | 319 | 1.6 | 3.2 | 0.00 | 0.00 | 0.00 | 62 | 1009.8 |
| 20260906173437 | 32 | 318 | 0.0 | 6.4 | 0.00 | 0.00 | 0.00 | 63 | 1009.8 |
| 20260906172438 | 32 | 313 | 0.0 | 1.6 | 0.00 | 0.00 | 0.00 | 66 | 1010.3 |
| 20260906171437 | 31 | 313 | 0.0 | 6.4 | 0.00 | 0.00 | 0.00 | 67 | 1010.3 |
| 20260906170438 | 31 | 311 | 0.0 | 8.0 | 0.00 | 0.00 | 0.00 | 68 | 1010.3 |
| 20260906165437 | 30 | 31 | 0.0 | 3.2 | 0.00 | 0.00 | 0.00 | 70 | 1010.3 |
| 20260906164437 | 30 | 119 | 0.0 | 0.0 | 0.00 | 0.00 | 0.00 | 72 | 1010.3 |
| 20260906163438 | 30 | 123 | 1.6 | 4.8 | 0.00 | 0.00 | 0.00 | 74 | 1010.3 |
| 20260906162438 | 29 | 161 | 0.0 | 3.2 | 0.00 | 0.00 | 0.00 | 75 | 1010.3 |
| 20260906161438 | 29 | 161 | 0.0 | 0.0 | 0.00 | 0.00 | 0.00 | 77 | 1010.3 |
| 20260906160438 | 28 | 161 | 0.0 | 0.0 | 0.00 | 0.00 | 0.00 | 75 | 1010.3 |
| 20260906155438 | 29 | 161 | 0.0 | 0.0 | 0.00 | 0.00 | 0.00 | 77 | 1010.3 |
| 20260906154437 | 29 | 161 | 0.0 | 0.0 | 0.00 | 0.00 | 0.00 | 79 | 1010.2 |
| 20260906153438 | 28 | 161 | 0.0 | 1.6 | 0.00 | 0.00 | 0.00 | 80 | 1010.2 |
| 20260906152437 | 28 | 161 | 0.0 | 0.0 | 0.00 | 0.00 | 0.00 | 81 | 1010.2 |
| 20260906151438 | 28 | 161 | 0.0 | 3.2 | 0.00 | 0.00 | 0.00 | 81 | 1010.2 |
| 20260906150441 | 28 | 161 | 0.0 | 1.6 | 0.00 | 0.00 | 0.00 | 82 | 1010.2 |
| 20260906145437 | 28 | 161 | 0.0 | 1.6 | 0.00 | 0.00 | 0.00 | 84 | 1010.2 |
| 20260906144438 | 28 | 161 | 0.0 | 1.6 | 0.00 | 0.00 | 0.00 | 85 | 1010.2 |
| 20260906143441 | 28 | 161 | 0.0 | 1.6 | 0.00 | 0.00 | 0.00 | 86 | 1010.2 |
| 20260906142437 | 28 | 161 | 0.0 | 1.6 | 0.00 | 0.00 | 0.00 | 87 | 1010.2 |
| 20260906141438 | 27 | 161 | 0.0 | 0.0 | 0.00 | 0.00 | 0.00 | 88 | 1010.2 |
| 20260906140438 | 27 | 161 | 0.0 | 1.6 | 0.00 | 0.00 | 0.00 | 89 | 1010.2 |
| 20260906135438 | 27 | 161 | 0.0 | 0.0 | 0.00 | 0.00 | 0.00 | 89 | 1009.9 |
| 20260906134438 | 27 | 161 | 0.0 | 0.0 | 0.00 | 0.00 | 0.00 | 89 | 1009.8 |
| 20260906133437 | 27 | 161 | 0.0 | 1.6 | 0.00 | 0.00 | 0.00 | 89 | 1009.8 |
| 20260906132441 | 26 | 161 | 0.0 | 1.6 | 0.00 | 0.00 | 0.00 | 89 | 1009.7 |
| 20260906131437 | 26 | 161 | 0.0 | 1.6 | 0.00 | 0.00 | 0.00 | 88 | 1009.7 |
| 20260906130437 | 26 | 161 | 0.0 | 0.0 | 0.00 | 0.00 | 0.00 | 87 | 1009.7 |
| 20260906125440 | 26 | 161 | 0.0 | 0.0 | 0.00 | 0.00 | 0.00 | 87 | 1009.5 |
| 20260906124440 | 26 | 161 | 0.0 | 0.0 | 0.00 | 0.00 | 0.00 | 86 | 1009.3 |
| 20260906123437 | 26 | 161 | 0.0 | 0.0 | 0.00 | 0.00 | 0.00 | 86 | 1009.3 |
| 20260906122437 | 26 | 161 | 0.0 | 0.0 | 0.00 | 0.00 | 0.00 | 86 | 1009.0 |
| 20260906121437 | 26 | 161 | 0.0 | 0.0 | 0.00 | 0.00 | 0.00 | 87 | 1008.7 |
| 20260906120437 | 26 | 161 | 0.0 | 0.0 | 0.00 | 0.00 | 0.00 | 86 | 1008.7 |
| 20260906115441 | 26 | 161 | 0.0 | 0.0 | 0.00 | 0.00 | 0.00 | 86 | 1008.6 |
| 20260906114437 | 26 | 161 | 0.0 | 0.0 | 0.00 | 0.00 | 0.00 | 86 | 1008.4 |
| 20260906113437 | 26 | 161 | 0.0 | 0.0 | 0.00 | 0.00 | 0.00 | 85 | 1008.4 |
| 20260906112437 | 26 | 161 | 0.0 | 0.0 | 0.00 | 0.00 | 0.00 | 85 | 1008.3 |
| 20260906111437 | 26 | 161 | 0.0 | 0.0 | 0.00 | 0.00 | 0.00 | 85 | 1008.4 |
| 20260906110440 | 26 | 161 | 0.0 | 0.0 | 0.00 | 0.00 | 0.00 | 84 | 1008.4 |
| 20260906105437 | 26 | 161 | 0.0 | 0.0 | 0.00 | 0.00 | 0.00 | 84 | 1008.4 |
| 20260906104438 | 26 | 161 | 0.0 | 0.0 | 0.00 | 0.00 | 0.00 | 84 | 1008.3 |
| 20260906103437 | 26 | 161 | 0.0 | 0.0 | 0.00 | 0.00 | 0.00 | 84 | 1008.3 |
| 20260906102438 | 26 | 161 | 0.0 | 0.0 | 0.00 | 0.00 | 0.00 | 84 | 1008.1 |
| 20260906101437 | 26 | 161 | 0.0 | 0.0 | 0.00 | 0.00 | 0.00 | 84 | 1008.1 |
| 20260906100440 | 26 | 161 | 0.0 | 0.0 | 0.00 | 0.00 | 0.00 | 84 | 1008.1 |
| 20260906095438 | 26 | 161 | 0.0 | 0.0 | 0.00 | 0.00 | 0.00 | 84 | 1007.9 |
| 20260906094440 | 27 | 161 | 0.0 | 0.0 | 0.00 | 0.00 | 0.00 | 84 | 1007.7 |
| 20260906093437 | 27 | 161 | 0.0 | 0.0 | 0.00 | 0.00 | 0.00 | 84 | 1007.7 |
| 20260906092437 | 27 | 161 | 0.0 | 0.0 | 0.00 | 0.00 | 0.00 | 83 | 1007.7 |
| 20260906091437 | 27 | 161 | 0.0 | 0.0 | 0.00 | 0.00 | 0.00 | 83 | 1007.9 |
| 20260906090437 | 27 | 161 | 0.0 | 0.0 | 0.00 | 0.00 | 0.00 | 83 | 1007.9 |
| 20260906085436 | 27 | 161 | 0.0 | 0.0 | 0.00 | 0.00 | 0.00 | 84 | 1007.6 |
| 20260906084437 | 27 | 161 | 0.0 | 0.0 | 0.00 | 0.00 | 0.00 | 83 | 1007.7 |
| 20260906083437 | 27 | 161 | 0.0 | 0.0 | 0.00 | 0.00 | 0.00 | 82 | 1007.7 |
| 20260906082437 | 27 | 161 | 0.0 | 0.0 | 0.00 | 0.00 | 0.00 | 82 | 1007.7 |
| 20260906081437 | 27 | 161 | 0.0 | 0.0 | 0.00 | 0.00 | 0.00 | 82 | 1007.8 |
| 20260906080436 | 27 | 161 | 0.0 | 0.0 | 0.00 | 0.00 | 0.00 | 82 | 1007.8 |
| 20260906075437 | 27 | 161 | 0.0 | 0.0 | 0.00 | 0.00 | 0.00 | 82 | 1007.9 |
| 20260906074437 | 27 | 161 | 0.0 | 0.0 | 0.00 | 0.00 | 0.00 | 82 | 1008.1 |
| 20260906073436 | 27 | 161 | 0.0 | 0.0 | 0.00 | 0.00 | 0.00 | 82 | 1008.1 |
| 20260906072437 | 27 | 161 | 0.0 | 0.0 | 0.00 | 0.00 | 0.00 | 82 | 1008.1 |
| 20260906071437 | 27 | 161 | 0.0 | 0.0 | 0.00 | 0.00 | 0.00 | 82 | 1008.4 |
| 20260906070436 | 27 | 161 | 0.0 | 3.2 | 0.00 | 0.00 | 0.00 | 82 | 1008.4 |
| 20260906065437 | 27 | 161 | 0.0 | 0.0 | 0.00 | 0.00 | 0.00 | 82 | 1008.6 |
| 20260906064436 | 27 | 161 | 0.0 | 0.0 | 0.00 | 0.00 | 0.00 | 82 | 1008.6 |
| 20260906063437 | 27 | 161 | 0.0 | 0.0 | 0.00 | 0.00 | 0.00 | 82 | 1008.6 |
| 20260906062436 | 27 | 161 | 0.0 | 1.6 | 0.00 | 0.00 | 0.00 | 81 | 1008.4 |
| 20260906061436 | 27 | 161 | 0.0 | 0.0 | 0.00 | 0.00 | 0.00 | 81 | 1008.5 |
| 20260906060436 | 27 | 161 | 0.0 | 0.0 | 0.00 | 0.00 | 0.00 | 81 | 1008.5 |
| 20260906055440 | 27 | 161 | 0.0 | 0.0 | 0.00 | 0.00 | 0.00 | 81 | 1008.3 |
| 20260906054436 | 27 | 161 | 0.0 | 3.2 | 0.00 | 0.00 | 0.00 | 80 | 1008.4 |
| 20260906053437 | 27 | 161 | 0.0 | 0.0 | 0.00 | 0.00 | 0.00 | 80 | 1008.4 |
| 20260906052437 | 27 | 161 | 0.0 | 4.8 | 0.00 | 0.00 | 0.00 | 80 | 1008.6 |
| 20260906051436 | 27 | 161 | 0.0 | 0.0 | 0.00 | 0.00 | 0.00 | 79 | 1008.6 |
| 20260906050436 | 28 | 161 | 0.0 | 0.0 | 0.00 | 0.00 | 0.15 | 79 | 1008.6 |
| 20260906045436 | 28 | 161 | 0.0 | 1.6 | 0.00 | 0.00 | 0.15 | 79 | 1008.7 |
| 20260906044436 | 28 | 161 | 0.0 | 4.8 | 0.00 | 0.00 | 0.15 | 79 | 1008.6 |
| 20260906043440 | 28 | 161 | 0.0 | 1.6 | 0.00 | 0.00 | 0.15 | 79 | 1008.6 |
| 20260906042437 | 28 | 161 | 0.0 | 4.8 | 0.00 | 0.00 | 0.15 | 78 | 1008.7 |
| 20260906041439 | 28 | 163 | 0.0 | 1.6 | 0.00 | 0.00 | 0.15 | 78 | 1008.7 |
| 20260906040436 | 28 | 163 | 0.0 | 1.6 | 0.00 | 0.00 | 0.15 | 78 | 1008.7 |
| 20260906035439 | 28 | 163 | 0.0 | 3.2 | 0.00 | 0.00 | 0.15 | 77 | 1008.7 |
| 20260906034437 | 28 | 163 | 0.0 | 1.6 | 0.00 | 0.00 | 0.15 | 77 | 1008.7 |
| 20260906033437 | 28 | 163 | 0.0 | 1.6 | 0.00 | 0.00 | 0.15 | 77 | 1008.7 |
| 20260906032439 | 28 | 163 | 0.0 | 4.8 | 0.00 | 0.00 | 0.15 | 77 | 1008.7 |
| 20260906031437 | 28 | 163 | 3.2 | 3.2 | 0.00 | 0.00 | 0.15 | 77 | 1008.6 |
| 20260906030436 | 28 | 163 | 0.0 | 0.0 | 0.00 | 0.00 | 0.15 | 76 | 1008.6 |
| 20260906025436 | 28 | 163 | 0.0 | 3.2 | 0.00 | 0.00 | 0.15 | 76 | 1008.4 |
| 20260906024440 | 28 | 163 | 3.2 | 4.8 | 0.00 | 0.00 | 0.15 | 77 | 1008.1 |
| 20260906023440 | 28 | 163 | 0.0 | 3.2 | 0.00 | 0.00 | 0.15 | 77 | 1008.1 |
| 20260906022437 | 28 | 163 | 1.6 | 6.4 | 0.00 | 0.00 | 0.15 | 78 | 1007.8 |
| 20260906021437 | 28 | 163 | 0.0 | 0.0 | 0.00 | 0.00 | 0.15 | 78 | 1007.6 |
| 20260906020439 | 28 | 163 | 0.0 | 0.0 | 0.00 | 0.00 | 0.15 | 78 | 1007.6 |
| 20260906015436 | 28 | 163 | 0.0 | 0.0 | 0.00 | 0.00 | 0.15 | 78 | 1007.5 |
| 20260906014436 | 28 | 163 | 0.0 | 0.0 | 0.00 | 0.00 | 0.15 | 78 | 1007.5 |
| 20260906013436 | 28 | 163 | 0.0 | 0.0 | 0.00 | 0.00 | 0.15 | 78 | 1007.5 |
| 20260906012436 | 28 | 163 | 0.0 | 0.0 | 0.00 | 0.00 | 0.15 | 78 | 1007.2 |
| 20260906011436 | 28 | 163 | 0.0 | 0.0 | 0.00 | 0.00 | 0.15 | 77 | 1007.2 |
| 20260906010437 | 28 | 163 | 0.0 | 0.0 | 0.00 | 0.00 | 0.15 | 77 | 1007.2 |
| 20260906005436 | 29 | 163 | 0.0 | 0.0 | 0.00 | 0.00 | 0.15 | 77 | 1007.2 |
| 20260906004436 | 29 | 163 | 0.0 | 0.0 | 0.00 | 0.00 | 0.15 | 76 | 1007.3 |
| 20260906003436 | 29 | 163 | 0.0 | 0.0 | 0.00 | 0.00 | 0.15 | 77 | 1007.3 |
| 20260906002436 | 29 | 163 | 0.0 | 0.0 | 0.00 | 0.00 | 0.15 | 76 | 1007.6 |
| 20260906001436 | 30 | 163 | 0.0 | 0.0 | 0.00 | 0.00 | 0.15 | 75 | 1007.6 |
| 20260906000436 | 30 | 163 | 0.0 | 0.0 | 0.00 | 0.00 | 0.15 | 75 | 1007.6 |
| 20260905235439 | 30 | 163 | 0.0 | 0.0 | 0.00 | 0.00 | 0.15 | 75 | 1007.6 |
| 20260905234436 | 30 | 163 | 0.0 | 0.0 | 0.00 | 0.00 | 0.15 | 74 | 1007.7 |
| 20260905233436 | 30 | 163 | 0.0 | 0.0 | 0.00 | 0.00 | 0.15 | 74 | 1007.7 |
| 20260905232437 | 30 | 163 | 0.0 | 0.0 | 0.00 | 0.00 | 0.15 | 75 | 1007.6 |
| 20260905231436 | 29 | 163 | 0.0 | 0.0 | 0.00 | 0.00 | 0.15 | 77 | 1007.6 |
| 20260905230436 | 29 | 163 | 0.0 | 0.0 | 0.00 | 0.00 | 0.15 | 77 | 1007.6 |
| 20260905225436 | 29 | 163 | 0.0 | 0.0 | 0.00 | 0.00 | 0.15 | 77 | 1007.3 |
| 20260905224437 | 29 | 163 | 0.0 | 0.0 | 0.00 | 0.00 | 0.15 | 78 | 1007.2 |